createdAt,value
2018-05-18T00:03:03.599Z,14.75
2018-05-18T00:08:04.918Z,14.75
2018-05-18T00:13:06.234Z,14.74
2018-05-18T00:18:08.296Z,14.85
2018-05-18T00:23:09.606Z,14.79
2018-05-18T00:28:10.915Z,14.88
2018-05-18T00:33:12.958Z,14.80
2018-05-18T00:38:14.260Z,14.86
2018-05-18T00:43:15.575Z,14.87
2018-05-18T00:48:16.907Z,14.82
2018-05-18T00:53:18.226Z,14.71
2018-05-18T00:58:26.533Z,14.51
2018-05-18T01:03:28.576Z,14.48
2018-05-18T01:08:29.886Z,14.42
2018-05-18T01:13:31.196Z,14.39
2018-05-18T01:18:32.570Z,14.35
2018-05-18T01:23:33.880Z,14.51
2018-05-18T01:28:35.173Z,14.40
2018-05-18T01:33:36.490Z,14.27
2018-05-18T01:38:38.609Z,14.33
2018-05-18T01:43:39.880Z,14.15
2018-05-18T01:48:41.934Z,14.01
2018-05-18T01:53:43.247Z,14.11
2018-05-18T01:58:44.541Z,14.12
2018-05-18T02:03:46.003Z,14.02
2018-05-18T02:08:47.316Z,14.12
2018-05-18T02:13:48.623Z,14.00
2018-05-18T02:18:50.676Z,14.00
2018-05-18T02:23:52.006Z,14.03
2018-05-18T02:28:53.291Z,14.07
2018-05-18T02:33:54.600Z,14.01
2018-05-18T02:38:56.670Z,14.21
2018-05-18T02:43:57.994Z,14.11
2018-05-18T02:49:00.265Z,13.97
2018-05-18T02:54:01.588Z,14.06
2018-05-18T02:59:02.927Z,13.83
2018-05-18T03:04:04.249Z,13.91
2018-05-18T03:09:05.621Z,14.02
2018-05-18T03:14:06.935Z,14.06
2018-05-18T03:19:08.253Z,14.25
2018-05-18T03:24:10.302Z,14.17
2018-05-18T03:29:11.630Z,14.01
2018-05-18T03:34:12.941Z,13.92
2018-05-18T03:39:14.346Z,13.81
2018-05-18T03:44:15.662Z,13.77
2018-05-18T03:49:16.971Z,13.85
2018-05-18T03:54:18.298Z,13.78
2018-05-18T03:59:21.050Z,13.70
2018-05-18T04:04:41.260Z,13.92
2018-05-18T04:09:43.479Z,13.96
2018-05-18T04:14:45.435Z,14.03
2018-05-18T04:19:47.649Z,13.84
2018-05-18T04:24:48.941Z,13.79
2018-05-18T04:29:50.252Z,13.71
2018-05-18T04:34:52.307Z,13.88
2018-05-18T04:39:53.614Z,14.02
2018-05-18T04:44:54.916Z,14.25
2018-05-18T04:49:56.234Z,14.36
2018-05-18T04:54:57.523Z,14.33
2018-05-18T04:59:58.826Z,14.35
2018-05-18T05:05:00.162Z,14.28
2018-05-18T05:10:01.494Z,14.32
2018-05-18T05:15:02.847Z,14.22
2018-05-18T05:20:04.170Z,14.15
2018-05-18T05:25:05.499Z,14.29
2018-05-18T05:30:06.825Z,14.44
2018-05-18T05:35:08.129Z,14.34
2018-05-18T05:40:10.186Z,14.29
2018-05-18T05:45:11.502Z,14.72
2018-05-18T05:50:12.840Z,14.96
2018-05-18T05:55:14.182Z,14.93
2018-05-18T06:00:15.510Z,14.83
2018-05-18T06:05:16.960Z,14.66
2018-05-18T06:10:18.213Z,14.85
2018-05-18T06:15:19.537Z,14.63
2018-05-18T06:20:20.875Z,14.61
2018-05-18T06:25:22.194Z,14.62
2018-05-18T06:30:23.510Z,14.74
2018-05-18T06:35:24.846Z,14.96
2018-05-18T06:40:26.186Z,15.08
2018-05-18T06:45:27.490Z,15.14
2018-05-18T06:50:29.569Z,15.43
2018-05-18T06:55:30.900Z,15.72
2018-05-18T07:00:32.198Z,15.78
2018-05-18T07:05:33.497Z,15.98
2018-05-18T07:10:34.888Z,16.47
2018-05-18T07:15:36.134Z,16.48
2018-05-18T07:20:38.203Z,16.55
2018-05-18T07:25:39.523Z,16.87
2018-05-18T07:30:40.849Z,16.81
2018-05-18T07:35:42.170Z,16.66
2018-05-18T07:40:43.483Z,16.90
2018-05-18T07:45:44.821Z,17.11
2018-05-18T07:50:46.142Z,16.88
2018-05-18T07:55:47.458Z,17.19
2018-05-18T08:00:48.769Z,17.37
2018-05-18T08:05:50.814Z,17.93
2018-05-18T08:10:52.122Z,17.70
2018-05-18T08:15:53.434Z,17.82
2018-05-18T08:20:54.734Z,18.19
2018-05-18T08:25:56.050Z,18.46
2018-05-18T08:31:06.247Z,18.35
2018-05-18T08:36:07.576Z,18.45
2018-05-18T08:41:09.702Z,18.51
2018-05-18T08:46:11.007Z,18.17
2018-05-18T08:51:13.053Z,18.20
2018-05-18T08:56:14.362Z,18.09
2018-05-18T09:01:15.672Z,18.19
2018-05-18T09:06:16.993Z,18.12
2018-05-18T09:11:18.313Z,18.37
2018-05-18T09:16:19.609Z,18.14
2018-05-18T09:21:20.930Z,18.36
2018-05-18T09:26:22.307Z,18.52
2018-05-18T09:31:23.590Z,18.26
2018-05-18T09:36:24.906Z,18.38
2018-05-18T09:41:26.218Z,18.32
2018-05-18T09:46:27.618Z,18.42
2018-05-18T09:51:28.971Z,18.41
2018-05-18T09:56:30.391Z,18.50
2018-05-18T10:01:31.703Z,19.02
2018-05-18T10:06:33.050Z,18.81
2018-05-18T10:11:35.126Z,18.90
2018-05-18T10:16:36.442Z,18.78
2018-05-18T10:21:38.491Z,18.95
2018-05-18T10:26:39.835Z,19.27
2018-05-18T10:31:41.134Z,19.56
2018-05-18T10:36:43.183Z,20.29
2018-05-18T10:41:44.514Z,20.59
2018-05-18T10:46:45.846Z,20.34
2018-05-18T10:51:47.175Z,20.24
2018-05-18T10:56:48.523Z,20.23
2018-05-18T11:01:49.836Z,20.49
2018-05-18T11:06:51.224Z,20.62
2018-05-18T11:11:53.239Z,20.29
2018-05-18T11:16:54.567Z,20.52
2018-05-18T11:21:55.882Z,20.93
2018-05-18T11:26:57.175Z,21.33
2018-05-18T11:31:58.499Z,21.64
2018-05-18T11:36:59.810Z,21.98
2018-05-18T11:42:01.156Z,22.46
2018-05-18T11:47:02.529Z,22.71
2018-05-18T11:52:03.932Z,22.87
2018-05-18T11:57:05.251Z,22.95
2018-05-18T12:02:06.602Z,22.38
2018-05-18T12:07:07.910Z,22.34
2018-05-18T12:12:09.239Z,22.34
2018-05-18T12:17:10.563Z,22.22
2018-05-18T12:22:11.883Z,22.44
2018-05-18T12:27:13.230Z,21.69
2018-05-18T12:32:15.274Z,21.83
2018-05-18T12:37:23.533Z,21.35
2018-05-18T12:42:24.875Z,21.65
2018-05-18T12:47:26.936Z,22.59
2018-05-18T12:52:28.247Z,22.77
2018-05-18T12:57:29.566Z,22.51
2018-05-18T13:02:31.746Z,23.01
2018-05-18T13:07:33.025Z,23.49
2018-05-18T13:12:34.362Z,22.64
2018-05-18T13:17:35.683Z,21.69
2018-05-18T13:22:37.003Z,21.55
2018-05-18T13:27:38.411Z,22.31
2018-05-18T13:32:39.734Z,23.33
2018-05-18T13:37:41.034Z,22.78
2018-05-18T13:42:42.350Z,23.94
2018-05-18T13:47:43.694Z,24.14
2018-05-18T13:52:45.022Z,24.67
2018-05-18T13:57:46.359Z,24.87
2018-05-18T14:02:48.492Z,24.82
2018-05-18T14:07:49.742Z,24.53
2018-05-18T14:12:52.202Z,24.60
2018-05-18T14:17:53.548Z,24.91
2018-05-18T14:22:55.600Z,25.39
2018-05-18T14:27:56.914Z,25.15
2018-05-18T14:32:58.230Z,24.30
2018-05-18T14:37:59.669Z,24.21
2018-05-18T14:43:00.888Z,24.02
2018-05-18T14:48:02.242Z,23.70
2018-05-18T14:53:03.579Z,23.19
2018-05-18T14:58:04.913Z,23.37
2018-05-18T15:03:06.229Z,23.80
2018-05-18T15:08:07.552Z,24.83
2018-05-18T15:13:08.890Z,25.08
2018-05-18T15:18:10.211Z,25.03
2018-05-18T15:23:11.564Z,24.20
2018-05-18T15:28:13.089Z,23.41
2018-05-18T15:33:14.399Z,23.23
2018-05-18T15:38:15.689Z,23.21
2018-05-18T15:43:17.010Z,23.75
2018-05-18T15:48:18.322Z,24.11
2018-05-18T15:53:19.659Z,24.41
2018-05-18T15:58:21.150Z,24.75
2018-05-18T16:03:22.537Z,25.16
2018-05-18T16:08:23.859Z,24.89
2018-05-18T16:13:25.154Z,24.75
2018-05-18T16:18:26.480Z,24.15
2018-05-18T16:23:27.816Z,23.48
2018-05-18T16:28:29.897Z,23.70
2018-05-18T16:33:31.236Z,23.71
2018-05-18T16:38:32.558Z,23.21
2018-05-18T16:43:33.882Z,23.07
2018-05-18T16:48:36.010Z,23.53
2018-05-18T16:53:37.330Z,23.94
2018-05-18T16:58:38.642Z,23.99
2018-05-18T17:03:39.960Z,23.25
2018-05-18T17:08:42.010Z,22.61
2018-05-18T17:13:43.352Z,22.20
2018-05-18T17:18:44.646Z,21.75
2018-05-18T17:23:46.706Z,21.60
2018-05-18T17:28:48.030Z,21.77
2018-05-18T17:33:49.318Z,21.83
2018-05-18T17:38:51.167Z,21.70
2018-05-18T17:43:53.194Z,21.88
2018-05-18T17:48:55.555Z,21.65
2018-05-18T17:53:57.237Z,21.32
2018-05-18T17:58:58.582Z,21.13
2018-05-18T18:03:59.919Z,21.18
2018-05-18T18:09:01.293Z,21.21
2018-05-18T18:14:02.715Z,20.98
2018-05-18T18:19:04.031Z,20.90
2018-05-18T18:24:05.498Z,20.97
2018-05-18T18:29:07.598Z,20.76
2018-05-18T18:34:09.726Z,20.40
2018-05-18T18:39:11.900Z,20.14
2018-05-18T18:44:13.279Z,19.90
2018-05-18T18:49:14.723Z,19.70
2018-05-18T18:54:16.731Z,19.57
2018-05-18T18:59:18.082Z,19.32
2018-05-18T19:04:20.188Z,19.06
2018-05-18T19:09:21.522Z,18.82
2018-05-18T19:14:22.882Z,18.77
2018-05-18T19:19:26.041Z,18.62
2018-05-18T19:24:27.399Z,18.37
2018-05-18T19:29:29.461Z,18.21
2018-05-18T19:34:30.790Z,17.97
2018-05-18T19:39:32.129Z,17.88
2018-05-18T19:44:33.457Z,17.64
2018-05-18T19:49:34.761Z,17.29
2018-05-18T19:54:37.940Z,17.06
2018-05-18T19:59:40.140Z,16.81
2018-05-18T20:04:42.272Z,16.78
2018-05-18T20:09:43.598Z,16.64
2018-05-18T20:14:46.061Z,16.51
2018-05-18T20:19:47.485Z,16.48
2018-05-18T20:24:48.737Z,16.52
2018-05-18T20:29:50.059Z,16.16
2018-05-18T20:34:51.385Z,15.91
2018-05-18T20:39:52.685Z,15.91
2018-05-18T20:44:53.995Z,15.73
2018-05-18T20:49:55.314Z,15.67
2018-05-18T20:54:56.698Z,15.81
2018-05-18T20:59:58.087Z,15.90
2018-05-18T21:04:59.431Z,15.91
2018-05-18T21:10:00.740Z,15.94
2018-05-18T21:15:02.082Z,15.85
2018-05-18T21:20:03.426Z,15.81
2018-05-18T21:25:04.764Z,15.59
2018-05-18T21:30:06.102Z,15.74
2018-05-18T21:35:07.414Z,15.66
2018-05-18T21:40:08.721Z,15.76
2018-05-18T21:45:10.034Z,15.77
2018-05-18T21:50:11.397Z,15.68
2018-05-18T21:55:12.718Z,15.69
2018-05-18T22:00:14.782Z,15.73
2018-05-18T22:05:16.110Z,15.74
2018-05-18T22:10:17.437Z,15.56
2018-05-18T22:15:18.736Z,15.52
2018-05-18T22:20:20.067Z,15.62
2018-05-18T22:25:22.126Z,15.83
2018-05-18T22:30:23.444Z,15.71
2018-05-18T22:35:24.771Z,15.71
2018-05-18T22:40:26.058Z,15.51
2018-05-18T22:45:27.375Z,15.56
2018-05-18T22:50:28.709Z,15.64
2018-05-18T22:55:30.046Z,15.65
2018-05-18T23:00:31.404Z,15.56
2018-05-18T23:05:33.471Z,15.50
2018-05-18T23:10:34.798Z,15.29
2018-05-18T23:15:36.851Z,15.17
2018-05-18T23:20:38.166Z,15.18
2018-05-18T23:25:39.494Z,15.06
2018-05-18T23:30:40.833Z,14.86
2018-05-18T23:35:42.145Z,14.87
2018-05-18T23:40:43.470Z,14.73
2018-05-18T23:45:44.776Z,14.49
2018-05-18T23:50:46.085Z,14.46
2018-05-18T23:55:47.390Z,14.47
